sensor_id;sensor_type;location;lat;lon;timestamp;P1;durP1;ratioP1;P2;durP2;ratioP2
41927;SDS011;27616;51.420;6.788;2023-04-06T00:00:31;22.43;;;9.80;;
41927;SDS011;27616;51.420;6.788;2023-04-06T00:02:57;19.30;;;10.83;;
41927;SDS011;27616;51.420;6.788;2023-04-06T00:05:23;20.63;;;10.03;;
41927;SDS011;27616;51.420;6.788;2023-04-06T00:07:49;20.37;;;10.40;;
41927;SDS011;27616;51.420;6.788;2023-04-06T00:10:16;20.77;;;10.70;;
41927;SDS011;27616;51.420;6.788;2023-04-06T00:12:42;21.70;;;10.30;;
41927;SDS011;27616;51.420;6.788;2023-04-06T00:15:08;21.77;;;10.37;;
41927;SDS011;27616;51.420;6.788;2023-04-06T00:17:34;17.77;;;9.40;;
41927;SDS011;27616;51.420;6.788;2023-04-06T00:20:00;19.63;;;9.80;;
41927;SDS011;27616;51.420;6.788;2023-04-06T00:22:26;17.83;;;9.10;;
41927;SDS011;27616;51.420;6.788;2023-04-06T00:24:52;22.17;;;9.37;;
41927;SDS011;27616;51.420;6.788;2023-04-06T00:27:17;17.20;;;7.60;;
41927;SDS011;27616;51.420;6.788;2023-04-06T00:29:43;16.17;;;8.37;;
41927;SDS011;27616;51.420;6.788;2023-04-06T00:32:10;19.73;;;9.00;;
41927;SDS011;27616;51.420;6.788;2023-04-06T00:34:36;21.73;;;8.37;;
41927;SDS011;27616;51.420;6.788;2023-04-06T00:37:01;24.00;;;9.10;;
41927;SDS011;27616;51.420;6.788;2023-04-06T00:39:27;17.60;;;8.70;;
41927;SDS011;27616;51.420;6.788;2023-04-06T00:41:53;19.33;;;8.97;;
41927;SDS011;27616;51.420;6.788;2023-04-06T00:44:20;23.37;;;9.77;;
41927;SDS011;27616;51.420;6.788;2023-04-06T00:46:47;18.23;;;9.63;;
41927;SDS011;27616;51.420;6.788;2023-04-06T00:49:12;18.03;;;8.37;;
41927;SDS011;27616;51.420;6.788;2023-04-06T00:51:39;16.33;;;8.43;;
41927;SDS011;27616;51.420;6.788;2023-04-06T00:54:05;15.97;;;7.87;;
41927;SDS011;27616;51.420;6.788;2023-04-06T00:56:32;15.80;;;8.07;;
41927;SDS011;27616;51.420;6.788;2023-04-06T00:58:58;18.97;;;8.20;;
41927;SDS011;27616;51.420;6.788;2023-04-06T01:01:24;17.03;;;7.73;;
41927;SDS011;27616;51.420;6.788;2023-04-06T01:03:53;15.90;;;7.80;;
41927;SDS011;27616;51.420;6.788;2023-04-06T01:06:19;16.07;;;7.80;;
41927;SDS011;27616;51.420;6.788;2023-04-06T01:08:54;14.80;;;7.17;;
41927;SDS011;27616;51.420;6.788;2023-04-06T01:11:23;15.32;;;7.50;;
41927;SDS011;27616;51.420;6.788;2023-04-06T01:14:02;16.23;;;7.80;;
41927;SDS011;27616;51.420;6.788;2023-04-06T01:16:58;13.67;;;7.03;;
41927;SDS011;27616;51.420;6.788;2023-04-06T01:19:28;16.30;;;7.07;;
41927;SDS011;27616;51.420;6.788;2023-04-06T01:21:54;19.63;;;7.87;;
41927;SDS011;27616;51.420;6.788;2023-04-06T01:24:39;14.70;;;7.30;;
41927;SDS011;27616;51.420;6.788;2023-04-06T01:27:11;15.37;;;6.97;;
41927;SDS011;27616;51.420;6.788;2023-04-06T01:29:50;16.40;;;7.22;;
41927;SDS011;27616;51.420;6.788;2023-04-06T01:32:30;17.03;;;7.17;;
41927;SDS011;27616;51.420;6.788;2023-04-06T01:34:56;15.70;;;7.77;;
41927;SDS011;27616;51.420;6.788;2023-04-06T01:37:22;16.17;;;7.83;;
41927;SDS011;27616;51.420;6.788;2023-04-06T01:39:51;15.32;;;8.02;;
41927;SDS011;27616;51.420;6.788;2023-04-06T01:42:26;17.77;;;7.67;;
41927;SDS011;27616;51.420;6.788;2023-04-06T01:44:52;15.57;;;7.60;;
41927;SDS011;27616;51.420;6.788;2023-04-06T01:47:17;17.10;;;8.07;;
41927;SDS011;27616;51.420;6.788;2023-04-06T01:49:44;16.40;;;8.10;;
41927;SDS011;27616;51.420;6.788;2023-04-06T01:52:10;15.40;;;7.63;;
41927;SDS011;27616;51.420;6.788;2023-04-06T01:54:40;16.93;;;7.93;;
41927;SDS011;27616;51.420;6.788;2023-04-06T01:57:10;15.83;;;7.70;;
41927;SDS011;27616;51.420;6.788;2023-04-06T01:59:49;14.65;;;7.07;;
41927;SDS011;27616;51.420;6.788;2023-04-06T02:02:35;17.30;;;7.87;;
41927;SDS011;27616;51.420;6.788;2023-04-06T02:05:05;15.37;;;8.10;;
41927;SDS011;27616;51.420;6.788;2023-04-06T02:07:32;13.80;;;7.47;;
41927;SDS011;27616;51.420;6.788;2023-04-06T02:09:59;15.70;;;7.67;;
41927;SDS011;27616;51.420;6.788;2023-04-06T02:12:33;16.53;;;7.43;;
41927;SDS011;27616;51.420;6.788;2023-04-06T02:14:59;14.77;;;8.10;;
41927;SDS011;27616;51.420;6.788;2023-04-06T02:17:25;16.60;;;8.47;;
41927;SDS011;27616;51.420;6.788;2023-04-06T02:19:51;15.60;;;8.27;;
41927;SDS011;27616;51.420;6.788;2023-04-06T02:22:16;17.33;;;8.47;;
41927;SDS011;27616;51.420;6.788;2023-04-06T02:24:43;20.30;;;8.40;;
41927;SDS011;27616;51.420;6.788;2023-04-06T02:27:09;18.57;;;7.97;;
41927;SDS011;27616;51.420;6.788;2023-04-06T02:29:35;15.40;;;7.67;;
41927;SDS011;27616;51.420;6.788;2023-04-06T02:32:02;18.87;;;8.60;;
41927;SDS011;27616;51.420;6.788;2023-04-06T02:34:31;20.17;;;8.47;;
41927;SDS011;27616;51.420;6.788;2023-04-06T02:36:56;17.57;;;8.30;;
41927;SDS011;27616;51.420;6.788;2023-04-06T02:39:22;17.33;;;8.77;;
41927;SDS011;27616;51.420;6.788;2023-04-06T02:41:49;19.77;;;9.10;;
41927;SDS011;27616;51.420;6.788;2023-04-06T02:44:19;19.60;;;9.07;;
41927;SDS011;27616;51.420;6.788;2023-04-06T02:46:46;20.53;;;8.67;;
41927;SDS011;27616;51.420;6.788;2023-04-06T02:49:11;20.10;;;8.80;;
41927;SDS011;27616;51.420;6.788;2023-04-06T02:51:37;19.13;;;8.60;;
41927;SDS011;27616;51.420;6.788;2023-04-06T02:54:23;19.53;;;9.17;;
41927;SDS011;27616;51.420;6.788;2023-04-06T02:56:49;15.57;;;9.00;;
41927;SDS011;27616;51.420;6.788;2023-04-06T02:59:15;16.63;;;8.70;;
41927;SDS011;27616;51.420;6.788;2023-04-06T03:01:47;15.40;;;8.87;;
41927;SDS011;27616;51.420;6.788;2023-04-06T03:04:12;18.13;;;9.93;;
41927;SDS011;27616;51.420;6.788;2023-04-06T03:06:38;18.40;;;9.10;;
41927;SDS011;27616;51.420;6.788;2023-04-06T03:09:14;17.27;;;9.10;;
41927;SDS011;27616;51.420;6.788;2023-04-06T03:11:42;17.10;;;8.73;;
41927;SDS011;27616;51.420;6.788;2023-04-06T03:14:08;15.70;;;8.67;;
41927;SDS011;27616;51.420;6.788;2023-04-06T03:16:33;17.10;;;8.63;;
41927;SDS011;27616;51.420;6.788;2023-04-06T03:19:00;17.53;;;8.77;;
41927;SDS011;27616;51.420;6.788;2023-04-06T03:21:27;17.00;;;9.40;;
41927;SDS011;27616;51.420;6.788;2023-04-06T03:23:53;15.80;;;8.90;;
41927;SDS011;27616;51.420;6.788;2023-04-06T03:26:19;15.43;;;8.53;;
41927;SDS011;27616;51.420;6.788;2023-04-06T03:28:48;18.23;;;8.30;;
41927;SDS011;27616;51.420;6.788;2023-04-06T03:31:14;14.27;;;8.07;;
41927;SDS011;27616;51.420;6.788;2023-04-06T03:33:53;18.33;;;8.45;;
41927;SDS011;27616;51.420;6.788;2023-04-06T03:36:23;18.13;;;8.83;;
41927;SDS011;27616;51.420;6.788;2023-04-06T03:38:53;16.17;;;8.90;;
41927;SDS011;27616;51.420;6.788;2023-04-06T03:41:19;15.60;;;8.63;;
41927;SDS011;27616;51.420;6.788;2023-04-06T03:43:57;16.98;;;8.75;;
41927;SDS011;27616;51.420;6.788;2023-04-06T03:46:23;17.90;;;9.00;;
41927;SDS011;27616;51.420;6.788;2023-04-06T03:48:52;20.03;;;8.77;;
41927;SDS011;27616;51.420;6.788;2023-04-06T03:51:20;17.07;;;8.47;;
41927;SDS011;27616;51.420;6.788;2023-04-06T03:53:46;15.03;;;8.30;;
41927;SDS011;27616;51.420;6.788;2023-04-06T03:56:12;18.50;;;9.10;;
41927;SDS011;27616;51.420;6.788;2023-04-06T03:58:38;17.07;;;8.73;;
41927;SDS011;27616;51.420;6.788;2023-04-06T04:01:04;17.63;;;8.90;;
41927;SDS011;27616;51.420;6.788;2023-04-06T04:03:30;16.77;;;8.97;;
41927;SDS011;27616;51.420;6.788;2023-04-06T04:05:55;19.40;;;9.00;;
41927;SDS011;27616;51.420;6.788;2023-04-06T04:08:24;17.20;;;8.47;;
41927;SDS011;27616;51.420;6.788;2023-04-06T04:10:51;18.08;;;8.60;;
41927;SDS011;27616;51.420;6.788;2023-04-06T04:13:18;19.40;;;8.37;;
41927;SDS011;27616;51.420;6.788;2023-04-06T04:15:46;17.63;;;8.68;;
41927;SDS011;27616;51.420;6.788;2023-04-06T04:18:14;17.93;;;8.33;;
41927;SDS011;27616;51.420;6.788;2023-04-06T04:20:39;15.63;;;8.20;;
41927;SDS011;27616;51.420;6.788;2023-04-06T04:23:07;14.50;;;8.57;;
41927;SDS011;27616;51.420;6.788;2023-04-06T04:25:34;15.57;;;8.30;;
41927;SDS011;27616;51.420;6.788;2023-04-06T04:27:59;15.10;;;8.30;;
41927;SDS011;27616;51.420;6.788;2023-04-06T04:30:25;15.70;;;8.47;;
41927;SDS011;27616;51.420;6.788;2023-04-06T04:32:51;15.90;;;8.07;;
41927;SDS011;27616;51.420;6.788;2023-04-06T04:35:19;15.98;;;8.05;;
41927;SDS011;27616;51.420;6.788;2023-04-06T04:37:45;18.80;;;8.63;;
41927;SDS011;27616;51.420;6.788;2023-04-06T04:40:11;18.87;;;8.30;;
41927;SDS011;27616;51.420;6.788;2023-04-06T04:42:46;18.77;;;8.20;;
41927;SDS011;27616;51.420;6.788;2023-04-06T04:45:19;20.23;;;8.40;;
41927;SDS011;27616;51.420;6.788;2023-04-06T04:47:44;13.90;;;7.80;;
41927;SDS011;27616;51.420;6.788;2023-04-06T04:50:13;13.53;;;7.77;;
41927;SDS011;27616;51.420;6.788;2023-04-06T04:55:15;14.93;;;7.53;;
41927;SDS011;27616;51.420;6.788;2023-04-06T04:57:44;11.02;;;5.95;;
41927;SDS011;27616;51.420;6.788;2023-04-06T05:00:10;15.03;;;7.13;;
41927;SDS011;27616;51.420;6.788;2023-04-06T05:05:19;15.57;;;7.43;;
41927;SDS011;27616;51.420;6.788;2023-04-06T05:07:45;15.73;;;7.17;;
41927;SDS011;27616;51.420;6.788;2023-04-06T05:10:19;16.07;;;7.17;;
41927;SDS011;27616;51.420;6.788;2023-04-06T05:12:52;16.53;;;8.00;;
41927;SDS011;27616;51.420;6.788;2023-04-06T05:15:17;16.57;;;7.00;;
41927;SDS011;27616;51.420;6.788;2023-04-06T05:17:43;19.50;;;9.27;;
41927;SDS011;27616;51.420;6.788;2023-04-06T05:20:13;15.13;;;7.73;;
41927;SDS011;27616;51.420;6.788;2023-04-06T05:22:46;15.50;;;7.07;;
41927;SDS011;27616;51.420;6.788;2023-04-06T05:25:12;15.67;;;7.23;;
41927;SDS011;27616;51.420;6.788;2023-04-06T05:27:39;16.20;;;7.70;;
41927;SDS011;27616;51.420;6.788;2023-04-06T05:30:14;17.40;;;8.03;;
41927;SDS011;27616;51.420;6.788;2023-04-06T05:32:44;15.80;;;7.53;;
41927;SDS011;27616;51.420;6.788;2023-04-06T05:35:10;17.23;;;8.27;;
41927;SDS011;27616;51.420;6.788;2023-04-06T05:37:38;13.93;;;6.70;;
41927;SDS011;27616;51.420;6.788;2023-04-06T05:40:05;12.97;;;7.37;;
41927;SDS011;27616;51.420;6.788;2023-04-06T05:42:40;20.47;;;9.00;;
41927;SDS011;27616;51.420;6.788;2023-04-06T05:45:08;17.37;;;7.67;;
41927;SDS011;27616;51.420;6.788;2023-04-06T05:47:36;13.07;;;6.68;;
41927;SDS011;27616;51.420;6.788;2023-04-06T05:50:14;15.17;;;7.63;;
41927;SDS011;27616;51.420;6.788;2023-04-06T05:52:41;15.90;;;7.80;;
41927;SDS011;27616;51.420;6.788;2023-04-06T05:55:10;20.65;;;8.35;;
41927;SDS011;27616;51.420;6.788;2023-04-06T05:57:39;14.07;;;7.70;;
41927;SDS011;27616;51.420;6.788;2023-04-06T06:00:05;18.07;;;7.97;;
41927;SDS011;27616;51.420;6.788;2023-04-06T06:02:46;18.27;;;7.53;;
41927;SDS011;27616;51.420;6.788;2023-04-06T06:05:17;15.20;;;8.00;;
41927;SDS011;27616;51.420;6.788;2023-04-06T06:07:44;20.73;;;8.30;;
41927;SDS011;27616;51.420;6.788;2023-04-06T06:10:10;14.07;;;7.50;;
41927;SDS011;27616;51.420;6.788;2023-04-06T06:12:36;17.03;;;7.37;;
41927;SDS011;27616;51.420;6.788;2023-04-06T06:15:02;17.10;;;7.47;;
41927;SDS011;27616;51.420;6.788;2023-04-06T06:17:32;13.63;;;7.47;;
41927;SDS011;27616;51.420;6.788;2023-04-06T06:19:58;15.40;;;7.53;;
41927;SDS011;27616;51.420;6.788;2023-04-06T06:22:26;12.27;;;6.73;;
41927;SDS011;27616;51.420;6.788;2023-04-06T06:24:51;10.37;;;6.23;;
41927;SDS011;27616;51.420;6.788;2023-04-06T06:27:19;13.13;;;7.00;;
41927;SDS011;27616;51.420;6.788;2023-04-06T06:29:45;13.37;;;6.90;;
41927;SDS011;27616;51.420;6.788;2023-04-06T06:32:12;12.60;;;5.97;;
41927;SDS011;27616;51.420;6.788;2023-04-06T06:34:38;16.53;;;6.97;;
41927;SDS011;27616;51.420;6.788;2023-04-06T06:37:07;12.60;;;6.68;;
41927;SDS011;27616;51.420;6.788;2023-04-06T06:39:35;10.37;;;5.77;;
41927;SDS011;27616;51.420;6.788;2023-04-06T06:42:01;13.13;;;6.60;;
41927;SDS011;27616;51.420;6.788;2023-04-06T06:44:45;13.53;;;6.20;;
41927;SDS011;27616;51.420;6.788;2023-04-06T06:47:10;13.97;;;7.17;;
41927;SDS011;27616;51.420;6.788;2023-04-06T06:49:36;12.27;;;6.80;;
41927;SDS011;27616;51.420;6.788;2023-04-06T06:52:02;12.43;;;6.47;;
41927;SDS011;27616;51.420;6.788;2023-04-06T06:54:27;16.83;;;9.13;;
41927;SDS011;27616;51.420;6.788;2023-04-06T06:56:53;11.47;;;6.43;;
41927;SDS011;27616;51.420;6.788;2023-04-06T06:59:20;14.67;;;7.83;;
41927;SDS011;27616;51.420;6.788;2023-04-06T07:01:46;14.73;;;6.80;;
41927;SDS011;27616;51.420;6.788;2023-04-06T07:04:11;11.97;;;6.47;;
41927;SDS011;27616;51.420;6.788;2023-04-06T07:06:37;10.27;;;6.47;;
41927;SDS011;27616;51.420;6.788;2023-04-06T07:09:03;12.80;;;6.53;;
41927;SDS011;27616;51.420;6.788;2023-04-06T07:11:29;14.23;;;6.33;;
41927;SDS011;27616;51.420;6.788;2023-04-06T07:13:55;11.67;;;5.93;;
41927;SDS011;27616;51.420;6.788;2023-04-06T07:16:21;12.17;;;6.53;;
41927;SDS011;27616;51.420;6.788;2023-04-06T07:18:46;11.63;;;6.00;;
41927;SDS011;27616;51.420;6.788;2023-04-06T07:21:12;11.40;;;6.50;;
41927;SDS011;27616;51.420;6.788;2023-04-06T07:23:39;14.40;;;6.47;;
41927;SDS011;27616;51.420;6.788;2023-04-06T07:26:05;12.17;;;6.53;;
41927;SDS011;27616;51.420;6.788;2023-04-06T07:28:31;11.10;;;6.43;;
41927;SDS011;27616;51.420;6.788;2023-04-06T07:30:58;11.10;;;6.63;;
41927;SDS011;27616;51.420;6.788;2023-04-06T07:33:25;10.53;;;6.43;;
41927;SDS011;27616;51.420;6.788;2023-04-06T07:35:55;14.10;;;6.93;;
41927;SDS011;27616;51.420;6.788;2023-04-06T07:38:22;12.47;;;7.37;;
41927;SDS011;27616;51.420;6.788;2023-04-06T07:40:50;10.83;;;6.80;;
41927;SDS011;27616;51.420;6.788;2023-04-06T07:43:15;12.13;;;7.40;;
41927;SDS011;27616;51.420;6.788;2023-04-06T07:45:41;12.60;;;6.97;;
41927;SDS011;27616;51.420;6.788;2023-04-06T07:48:07;11.27;;;6.80;;
41927;SDS011;27616;51.420;6.788;2023-04-06T07:50:34;11.70;;;6.20;;
41927;SDS011;27616;51.420;6.788;2023-04-06T07:53:00;12.37;;;6.83;;
41927;SDS011;27616;51.420;6.788;2023-04-06T07:55:26;13.17;;;6.93;;
41927;SDS011;27616;51.420;6.788;2023-04-06T07:57:52;11.60;;;7.00;;
41927;SDS011;27616;51.420;6.788;2023-04-06T08:00:17;13.20;;;7.07;;
41927;SDS011;27616;51.420;6.788;2023-04-06T08:02:43;11.43;;;7.13;;
41927;SDS011;27616;51.420;6.788;2023-04-06T08:05:09;11.50;;;7.70;;
41927;SDS011;27616;51.420;6.788;2023-04-06T08:07:35;14.45;;;7.78;;
41927;SDS011;27616;51.420;6.788;2023-04-06T08:10:01;11.30;;;7.05;;
41927;SDS011;27616;51.420;6.788;2023-04-06T08:12:27;13.05;;;7.18;;
41927;SDS011;27616;51.420;6.788;2023-04-06T08:14:53;15.80;;;8.05;;
41927;SDS011;27616;51.420;6.788;2023-04-06T08:17:18;13.05;;;7.30;;
41927;SDS011;27616;51.420;6.788;2023-04-06T08:19:44;12.18;;;7.20;;
41927;SDS011;27616;51.420;6.788;2023-04-06T08:22:10;16.55;;;8.23;;
41927;SDS011;27616;51.420;6.788;2023-04-06T08:24:36;13.68;;;7.15;;
41927;SDS011;27616;51.420;6.788;2023-04-06T08:27:02;18.98;;;8.32;;
41927;SDS011;27616;51.420;6.788;2023-04-06T08:29:28;13.75;;;8.75;;
41927;SDS011;27616;51.420;6.788;2023-04-06T08:31:54;13.50;;;8.15;;
41927;SDS011;27616;51.420;6.788;2023-04-06T08:34:20;16.57;;;10.10;;
41927;SDS011;27616;51.420;6.788;2023-04-06T08:36:46;14.27;;;9.37;;
41927;SDS011;27616;51.420;6.788;2023-04-06T08:39:12;15.23;;;8.90;;
41927;SDS011;27616;51.420;6.788;2023-04-06T08:41:38;12.97;;;7.50;;
41927;SDS011;27616;51.420;6.788;2023-04-06T08:44:07;13.32;;;8.30;;
41927;SDS011;27616;51.420;6.788;2023-04-06T08:46:33;14.67;;;7.93;;
41927;SDS011;27616;51.420;6.788;2023-04-06T08:49:00;16.92;;;7.80;;
41927;SDS011;27616;51.420;6.788;2023-04-06T08:51:27;15.65;;;8.30;;
41927;SDS011;27616;51.420;6.788;2023-04-06T08:53:54;13.65;;;7.82;;
41927;SDS011;27616;51.420;6.788;2023-04-06T08:56:21;14.77;;;8.50;;
41927;SDS011;27616;51.420;6.788;2023-04-06T08:58:47;14.77;;;8.25;;
41927;SDS011;27616;51.420;6.788;2023-04-06T09:01:14;13.55;;;8.35;;
41927;SDS011;27616;51.420;6.788;2023-04-06T09:03:45;13.45;;;7.90;;
41927;SDS011;27616;51.420;6.788;2023-04-06T09:06:13;14.25;;;8.13;;
41927;SDS011;27616;51.420;6.788;2023-04-06T09:08:39;15.23;;;8.85;;
41927;SDS011;27616;51.420;6.788;2023-04-06T09:11:06;16.98;;;8.73;;
41927;SDS011;27616;51.420;6.788;2023-04-06T09:13:46;17.45;;;8.90;;
41927;SDS011;27616;51.420;6.788;2023-04-06T09:16:14;15.65;;;9.68;;
41927;SDS011;27616;51.420;6.788;2023-04-06T09:18:40;19.67;;;7.93;;
41927;SDS011;27616;51.420;6.788;2023-04-06T09:21:07;16.25;;;8.98;;
41927;SDS011;27616;51.420;6.788;2023-04-06T09:23:34;15.38;;;8.50;;
41927;SDS011;27616;51.420;6.788;2023-04-06T09:26:04;15.15;;;8.65;;
41927;SDS011;27616;51.420;6.788;2023-04-06T09:29:08;13.95;;;8.30;;
41927;SDS011;27616;51.420;6.788;2023-04-06T09:31:29;17.23;;;9.13;;
41927;SDS011;27616;51.420;6.788;2023-04-06T09:33:58;14.85;;;8.40;;
41927;SDS011;27616;51.420;6.788;2023-04-06T09:36:32;13.85;;;8.45;;
41927;SDS011;27616;51.420;6.788;2023-04-06T09:39:01;15.80;;;8.63;;
41927;SDS011;27616;51.420;6.788;2023-04-06T09:41:29;17.73;;;9.25;;
41927;SDS011;27616;51.420;6.788;2023-04-06T09:44:02;16.95;;;9.63;;
41927;SDS011;27616;51.420;6.788;2023-04-06T09:46:27;18.60;;;9.95;;
41927;SDS011;27616;51.420;6.788;2023-04-06T09:48:57;14.73;;;8.93;;
41927;SDS011;27616;51.420;6.788;2023-04-06T09:51:24;17.63;;;9.48;;
41927;SDS011;27616;51.420;6.788;2023-04-06T09:53:54;16.92;;;9.30;;
41927;SDS011;27616;51.420;6.788;2023-04-06T09:56:26;16.25;;;9.38;;
41927;SDS011;27616;51.420;6.788;2023-04-06T09:58:55;17.92;;;9.50;;
41927;SDS011;27616;51.420;6.788;2023-04-06T10:01:26;19.08;;;9.65;;
41927;SDS011;27616;51.420;6.788;2023-04-06T10:03:56;17.38;;;10.02;;
41927;SDS011;27616;51.420;6.788;2023-04-06T10:06:33;19.45;;;9.98;;
41927;SDS011;27616;51.420;6.788;2023-04-06T10:09:01;17.77;;;9.85;;
41927;SDS011;27616;51.420;6.788;2023-04-06T10:11:29;21.17;;;10.00;;
41927;SDS011;27616;51.420;6.788;2023-04-06T10:13:56;18.67;;;9.52;;
41927;SDS011;27616;51.420;6.788;2023-04-06T10:16:22;19.75;;;10.45;;
41927;SDS011;27616;51.420;6.788;2023-04-06T10:18:51;17.88;;;10.18;;
41927;SDS011;27616;51.420;6.788;2023-04-06T10:21:21;19.92;;;10.65;;
41927;SDS011;27616;51.420;6.788;2023-04-06T10:23:58;18.85;;;10.43;;
41927;SDS011;27616;51.420;6.788;2023-04-06T10:26:26;20.48;;;11.00;;
41927;SDS011;27616;51.420;6.788;2023-04-06T10:28:51;19.83;;;10.75;;
41927;SDS011;27616;51.420;6.788;2023-04-06T10:31:24;19.77;;;11.25;;
41927;SDS011;27616;51.420;6.788;2023-04-06T10:34:00;18.95;;;10.88;;
41927;SDS011;27616;51.420;6.788;2023-04-06T10:36:28;22.65;;;10.82;;
41927;SDS011;27616;51.420;6.788;2023-04-06T10:38:58;20.38;;;12.32;;
41927;SDS011;27616;51.420;6.788;2023-04-06T10:41:34;23.15;;;11.30;;
41927;SDS011;27616;51.420;6.788;2023-04-06T10:44:06;22.25;;;12.40;;
41927;SDS011;27616;51.420;6.788;2023-04-06T10:46:32;22.15;;;11.25;;
41927;SDS011;27616;51.420;6.788;2023-04-06T10:49:08;20.05;;;11.43;;
41927;SDS011;27616;51.420;6.788;2023-04-06T10:51:37;22.35;;;12.15;;
41927;SDS011;27616;51.420;6.788;2023-04-06T10:54:04;21.23;;;10.93;;
41927;SDS011;27616;51.420;6.788;2023-04-06T10:56:31;18.63;;;10.75;;
41927;SDS011;27616;51.420;6.788;2023-04-06T10:59:01;18.48;;;10.77;;
41927;SDS011;27616;51.420;6.788;2023-04-06T11:01:27;21.15;;;10.75;;
41927;SDS011;27616;51.420;6.788;2023-04-06T11:03:54;21.75;;;10.73;;
41927;SDS011;27616;51.420;6.788;2023-04-06T11:06:21;21.38;;;11.50;;
41927;SDS011;27616;51.420;6.788;2023-04-06T11:08:49;19.95;;;11.02;;
41927;SDS011;27616;51.420;6.788;2023-04-06T11:11:17;20.58;;;10.77;;
41927;SDS011;27616;51.420;6.788;2023-04-06T11:13:51;21.80;;;11.43;;
41927;SDS011;27616;51.420;6.788;2023-04-06T11:16:19;21.88;;;11.43;;
41927;SDS011;27616;51.420;6.788;2023-04-06T11:19:01;23.48;;;12.20;;
41927;SDS011;27616;51.420;6.788;2023-04-06T11:21:39;23.02;;;11.75;;
41927;SDS011;27616;51.420;6.788;2023-04-06T11:24:11;22.48;;;11.65;;
41927;SDS011;27616;51.420;6.788;2023-04-06T11:26:45;22.25;;;12.13;;
41927;SDS011;27616;51.420;6.788;2023-04-06T11:29:12;21.02;;;11.60;;
41927;SDS011;27616;51.420;6.788;2023-04-06T11:31:42;25.75;;;13.32;;
41927;SDS011;27616;51.420;6.788;2023-04-06T11:34:23;22.83;;;12.38;;
41927;SDS011;27616;51.420;6.788;2023-04-06T11:36:54;25.30;;;11.77;;
41927;SDS011;27616;51.420;6.788;2023-04-06T11:39:24;22.27;;;11.43;;
41927;SDS011;27616;51.420;6.788;2023-04-06T11:41:53;23.40;;;11.67;;
41927;SDS011;27616;51.420;6.788;2023-04-06T11:44:33;21.73;;;11.88;;
41927;SDS011;27616;51.420;6.788;2023-04-06T11:47:08;24.05;;;12.25;;
41927;SDS011;27616;51.420;6.788;2023-04-06T11:49:39;24.42;;;12.38;;
41927;SDS011;27616;51.420;6.788;2023-04-06T11:54:43;20.70;;;12.75;;
41927;SDS011;27616;51.420;6.788;2023-04-06T11:57:10;23.80;;;12.95;;
41927;SDS011;27616;51.420;6.788;2023-04-06T11:59:35;24.52;;;13.50;;
41927;SDS011;27616;51.420;6.788;2023-04-06T12:02:01;22.50;;;12.52;;
41927;SDS011;27616;51.420;6.788;2023-04-06T12:04:28;22.75;;;12.80;;
41927;SDS011;27616;51.420;6.788;2023-04-06T12:06:54;22.55;;;12.07;;
41927;SDS011;27616;51.420;6.788;2023-04-06T12:09:20;22.05;;;11.90;;
41927;SDS011;27616;51.420;6.788;2023-04-06T12:11:46;22.83;;;10.85;;
41927;SDS011;27616;51.420;6.788;2023-04-06T12:14:12;22.33;;;11.82;;
41927;SDS011;27616;51.420;6.788;2023-04-06T12:16:38;23.33;;;11.57;;
41927;SDS011;27616;51.420;6.788;2023-04-06T12:19:04;22.38;;;12.20;;
41927;SDS011;27616;51.420;6.788;2023-04-06T12:21:30;21.90;;;11.52;;
41927;SDS011;27616;51.420;6.788;2023-04-06T12:23:59;22.33;;;11.57;;
41927;SDS011;27616;51.420;6.788;2023-04-06T12:26:26;21.88;;;12.07;;
41927;SDS011;27616;51.420;6.788;2023-04-06T12:28:52;21.92;;;11.50;;
41927;SDS011;27616;51.420;6.788;2023-04-06T12:31:18;20.40;;;11.68;;
41927;SDS011;27616;51.420;6.788;2023-04-06T12:33:48;23.00;;;12.10;;
41927;SDS011;27616;51.420;6.788;2023-04-06T12:36:16;23.60;;;12.15;;
41927;SDS011;27616;51.420;6.788;2023-04-06T12:38:44;23.38;;;11.95;;
41927;SDS011;27616;51.420;6.788;2023-04-06T12:41:13;23.67;;;12.00;;
41927;SDS011;27616;51.420;6.788;2023-04-06T12:43:42;24.15;;;11.55;;
41927;SDS011;27616;51.420;6.788;2023-04-06T12:46:08;20.15;;;11.90;;
41927;SDS011;27616;51.420;6.788;2023-04-06T12:48:34;22.45;;;11.93;;
41927;SDS011;27616;51.420;6.788;2023-04-06T12:51:04;21.35;;;11.27;;
41927;SDS011;27616;51.420;6.788;2023-04-06T12:53:30;24.73;;;11.85;;
41927;SDS011;27616;51.420;6.788;2023-04-06T12:55:57;22.42;;;10.77;;
41927;SDS011;27616;51.420;6.788;2023-04-06T12:58:23;21.20;;;11.45;;
41927;SDS011;27616;51.420;6.788;2023-04-06T13:00:57;21.42;;;11.70;;
41927;SDS011;27616;51.420;6.788;2023-04-06T13:03:27;20.55;;;10.60;;
41927;SDS011;27616;51.420;6.788;2023-04-06T13:05:53;17.10;;;9.68;;
41927;SDS011;27616;51.420;6.788;2023-04-06T13:08:19;16.67;;;9.50;;
41927;SDS011;27616;51.420;6.788;2023-04-06T13:10:49;16.07;;;8.90;;
41927;SDS011;27616;51.420;6.788;2023-04-06T13:13:16;14.57;;;8.30;;
41927;SDS011;27616;51.420;6.788;2023-04-06T13:15:42;13.57;;;7.88;;
41927;SDS011;27616;51.420;6.788;2023-04-06T13:18:10;14.20;;;7.93;;
41927;SDS011;27616;51.420;6.788;2023-04-06T13:20:36;13.70;;;7.50;;
41927;SDS011;27616;51.420;6.788;2023-04-06T13:23:01;12.98;;;7.25;;
41927;SDS011;27616;51.420;6.788;2023-04-06T13:25:27;10.82;;;6.43;;
41927;SDS011;27616;51.420;6.788;2023-04-06T13:27:53;15.27;;;6.93;;
41927;SDS011;27616;51.420;6.788;2023-04-06T13:30:19;12.70;;;5.77;;
41927;SDS011;27616;51.420;6.788;2023-04-06T13:32:45;12.87;;;6.27;;
41927;SDS011;27616;51.420;6.788;2023-04-06T13:35:11;10.10;;;5.87;;
41927;SDS011;27616;51.420;6.788;2023-04-06T13:37:37;11.87;;;6.40;;
41927;SDS011;27616;51.420;6.788;2023-04-06T13:40:03;10.67;;;6.27;;
41927;SDS011;27616;51.420;6.788;2023-04-06T13:42:30;14.43;;;6.83;;
41927;SDS011;27616;51.420;6.788;2023-04-06T13:44:57;11.67;;;7.20;;
41927;SDS011;27616;51.420;6.788;2023-04-06T13:47:24;12.43;;;6.97;;
41927;SDS011;27616;51.420;6.788;2023-04-06T13:49:50;14.43;;;6.73;;
41927;SDS011;27616;51.420;6.788;2023-04-06T13:52:16;10.57;;;6.27;;
41927;SDS011;27616;51.420;6.788;2023-04-06T13:54:42;14.07;;;7.30;;
41927;SDS011;27616;51.420;6.788;2023-04-06T13:57:08;14.23;;;8.07;;
41927;SDS011;27616;51.420;6.788;2023-04-06T13:59:34;11.87;;;7.73;;
41927;SDS011;27616;51.420;6.788;2023-04-06T14:02:01;16.70;;;7.93;;
41927;SDS011;27616;51.420;6.788;2023-04-06T14:04:27;14.10;;;7.83;;
41927;SDS011;27616;51.420;6.788;2023-04-06T14:06:53;12.97;;;8.10;;
41927;SDS011;27616;51.420;6.788;2023-04-06T14:09:19;14.73;;;8.50;;
41927;SDS011;27616;51.420;6.788;2023-04-06T14:11:45;12.50;;;7.67;;
41927;SDS011;27616;51.420;6.788;2023-04-06T14:14:11;12.20;;;7.37;;
41927;SDS011;27616;51.420;6.788;2023-04-06T14:16:36;12.07;;;7.53;;
41927;SDS011;27616;51.420;6.788;2023-04-06T14:19:02;13.63;;;7.20;;
41927;SDS011;27616;51.420;6.788;2023-04-06T14:21:28;13.07;;;7.73;;
41927;SDS011;27616;51.420;6.788;2023-04-06T14:23:53;10.83;;;7.03;;
41927;SDS011;27616;51.420;6.788;2023-04-06T14:26:20;12.10;;;7.03;;
41927;SDS011;27616;51.420;6.788;2023-04-06T14:28:46;12.77;;;6.73;;
41927;SDS011;27616;51.420;6.788;2023-04-06T14:31:12;12.83;;;6.80;;
41927;SDS011;27616;51.420;6.788;2023-04-06T14:33:40;13.70;;;6.50;;
41927;SDS011;27616;51.420;6.788;2023-04-06T14:36:06;11.30;;;6.83;;
41927;SDS011;27616;51.420;6.788;2023-04-06T14:38:33;12.73;;;6.97;;
41927;SDS011;27616;51.420;6.788;2023-04-06T14:40:59;12.37;;;6.67;;
41927;SDS011;27616;51.420;6.788;2023-04-06T14:43:25;12.13;;;7.30;;